sensor_id;sensor_type;location;lat;lon;timestamp;temperature;humidity
23721;DHT22;42950;52.134;5.578;2022-12-10T00:01:14;-0.40;99.90
23721;DHT22;42950;52.134;5.578;2022-12-10T00:03:41;-0.40;99.90
23721;DHT22;42950;52.134;5.578;2022-12-10T00:06:10;-0.50;99.90
23721;DHT22;42950;52.134;5.578;2022-12-10T00:08:36;-0.50;99.90
23721;DHT22;42950;52.134;5.578;2022-12-10T00:11:07;-0.40;99.90
23721;DHT22;42950;52.134;5.578;2022-12-10T00:13:33;-0.40;99.90
23721;DHT22;42950;52.134;5.578;2022-12-10T00:16:00;-0.40;99.90
23721;DHT22;42950;52.134;5.578;2022-12-10T00:18:26;-0.50;99.90
23721;DHT22;42950;52.134;5.578;2022-12-10T00:20:52;-0.50;99.90
23721;DHT22;42950;52.134;5.578;2022-12-10T00:23:18;-0.50;99.90
23721;DHT22;42950;52.134;5.578;2022-12-10T00:25:44;-0.50;99.90
23721;DHT22;42950;52.134;5.578;2022-12-10T00:28:09;-0.50;99.90
23721;DHT22;42950;52.134;5.578;2022-12-10T00:30:35;-0.60;99.90
23721;DHT22;42950;52.134;5.578;2022-12-10T00:33:01;-0.50;99.90
23721;DHT22;42950;52.134;5.578;2022-12-10T00:35:26;-0.50;99.90
23721;DHT22;42950;52.134;5.578;2022-12-10T00:37:52;-0.50;99.90
23721;DHT22;42950;52.134;5.578;2022-12-10T00:40:18;-0.50;99.90
23721;DHT22;42950;52.134;5.578;2022-12-10T00:42:44;-0.50;99.90
23721;DHT22;42950;52.134;5.578;2022-12-10T00:45:10;-0.50;99.90
23721;DHT22;42950;52.134;5.578;2022-12-10T00:47:35;-0.60;99.90
23721;DHT22;42950;52.134;5.578;2022-12-10T00:50:01;-0.60;99.90
23721;DHT22;42950;52.134;5.578;2022-12-10T00:52:27;-0.60;99.90
23721;DHT22;42950;52.134;5.578;2022-12-10T00:54:53;-0.60;99.90
23721;DHT22;42950;52.134;5.578;2022-12-10T00:57:18;-0.60;99.90
23721;DHT22;42950;52.134;5.578;2022-12-10T00:59:44;-0.60;99.90
23721;DHT22;42950;52.134;5.578;2022-12-10T01:02:09;-0.60;99.90
23721;DHT22;42950;52.134;5.578;2022-12-10T01:04:36;-0.60;99.90
23721;DHT22;42950;52.134;5.578;2022-12-10T01:07:02;-0.60;99.90
23721;DHT22;42950;52.134;5.578;2022-12-10T01:09:30;-0.60;99.90
23721;DHT22;42950;52.134;5.578;2022-12-10T01:11:57;-0.60;99.90
23721;DHT22;42950;52.134;5.578;2022-12-10T01:14:31;-0.60;99.90
23721;DHT22;42950;52.134;5.578;2022-12-10T01:17:00;-0.60;99.90
23721;DHT22;42950;52.134;5.578;2022-12-10T01:19:29;-0.60;99.90
23721;DHT22;42950;52.134;5.578;2022-12-10T01:21:55;-0.60;99.90
23721;DHT22;42950;52.134;5.578;2022-12-10T01:24:22;-0.60;99.90
23721;DHT22;42950;52.134;5.578;2022-12-10T01:26:48;-0.60;99.90
23721;DHT22;42950;52.134;5.578;2022-12-10T01:29:15;-0.70;99.90
23721;DHT22;42950;52.134;5.578;2022-12-10T01:31:41;-0.70;99.90
23721;DHT22;42950;52.134;5.578;2022-12-10T01:34:12;-0.70;99.90
23721;DHT22;42950;52.134;5.578;2022-12-10T01:36:41;-0.60;99.90
23721;DHT22;42950;52.134;5.578;2022-12-10T01:39:10;-0.60;99.90
23721;DHT22;42950;52.134;5.578;2022-12-10T01:41:38;-0.60;99.90
23721;DHT22;42950;52.134;5.578;2022-12-10T01:46:41;-0.50;99.90
23721;DHT22;42950;52.134;5.578;2022-12-10T01:49:12;-0.50;99.90
23721;DHT22;42950;52.134;5.578;2022-12-10T01:51:40;-0.60;99.90
23721;DHT22;42950;52.134;5.578;2022-12-10T01:54:11;-0.50;99.90
23721;DHT22;42950;52.134;5.578;2022-12-10T01:56:40;-0.60;99.90
23721;DHT22;42950;52.134;5.578;2022-12-10T01:59:07;-0.50;99.90
23721;DHT22;42950;52.134;5.578;2022-12-10T02:07:13;-0.50;99.90
23721;DHT22;42950;52.134;5.578;2022-12-10T02:12:24;-0.50;99.90
23721;DHT22;42950;52.134;5.578;2022-12-10T02:14:58;-0.50;99.90
23721;DHT22;42950;52.134;5.578;2022-12-10T02:17:33;-0.40;99.90
23721;DHT22;42950;52.134;5.578;2022-12-10T02:23:26;-0.60;99.90
23721;DHT22;42950;52.134;5.578;2022-12-10T02:26:13;-0.60;99.90
23721;DHT22;42950;52.134;5.578;2022-12-10T02:31:26;-0.70;99.90
23721;DHT22;42950;52.134;5.578;2022-12-10T02:33:57;-0.70;99.90
23721;DHT22;42950;52.134;5.578;2022-12-10T02:36:26;-0.70;99.90
23721;DHT22;42950;52.134;5.578;2022-12-10T02:38:56;-0.70;99.90
23721;DHT22;42950;52.134;5.578;2022-12-10T02:41:33;-0.70;99.90
23721;DHT22;42950;52.134;5.578;2022-12-10T02:44:03;-0.70;99.90
23721;DHT22;42950;52.134;5.578;2022-12-10T02:46:32;-0.70;99.90
23721;DHT22;42950;52.134;5.578;2022-12-10T02:48:58;-0.60;99.90
23721;DHT22;42950;52.134;5.578;2022-12-10T02:51:25;-0.60;99.90
23721;DHT22;42950;52.134;5.578;2022-12-10T02:54:02;-0.60;99.90
23721;DHT22;42950;52.134;5.578;2022-12-10T02:56:44;-0.50;99.90
23721;DHT22;42950;52.134;5.578;2022-12-10T02:59:25;-0.60;99.90
23721;DHT22;42950;52.134;5.578;2022-12-10T03:02:02;-0.50;99.90
23721;DHT22;42950;52.134;5.578;2022-12-10T03:07:17;-0.40;99.90
23721;DHT22;42950;52.134;5.578;2022-12-10T03:09:54;-0.40;99.90
23721;DHT22;42950;52.134;5.578;2022-12-10T03:12:48;-0.40;99.90
23721;DHT22;42950;52.134;5.578;2022-12-10T03:15:16;-0.30;99.90
23721;DHT22;42950;52.134;5.578;2022-12-10T03:17:45;-0.30;99.90
23721;DHT22;42950;52.134;5.578;2022-12-10T03:20:13;-0.20;99.90
23721;DHT22;42950;52.134;5.578;2022-12-10T03:22:44;-0.20;99.90
23721;DHT22;42950;52.134;5.578;2022-12-10T03:25:17;-0.20;99.90
23721;DHT22;42950;52.134;5.578;2022-12-10T03:27:45;-0.20;99.90
23721;DHT22;42950;52.134;5.578;2022-12-10T03:30:13;-0.20;99.90
23721;DHT22;42950;52.134;5.578;2022-12-10T03:32:38;-0.10;99.90
23721;DHT22;42950;52.134;5.578;2022-12-10T03:35:05;-0.10;99.90
23721;DHT22;42950;52.134;5.578;2022-12-10T03:37:31;-0.10;99.90
23721;DHT22;42950;52.134;5.578;2022-12-10T03:39:58;0.00;99.90
23721;DHT22;42950;52.134;5.578;2022-12-10T03:42:24;0.00;99.90
23721;DHT22;42950;52.134;5.578;2022-12-10T03:44:50;-0.10;99.90
23721;DHT22;42950;52.134;5.578;2022-12-10T03:47:17;0.10;99.90
23721;DHT22;42950;52.134;5.578;2022-12-10T03:49:43;0.10;99.90
23721;DHT22;42950;52.134;5.578;2022-12-10T03:52:09;0.10;99.90
23721;DHT22;42950;52.134;5.578;2022-12-10T03:54:35;0.00;99.90
23721;DHT22;42950;52.134;5.578;2022-12-10T03:57:03;0.00;99.90
23721;DHT22;42950;52.134;5.578;2022-12-10T03:59:28;0.00;99.90
23721;DHT22;42950;52.134;5.578;2022-12-10T04:01:54;0.00;99.90
23721;DHT22;42950;52.134;5.578;2022-12-10T04:04:20;-0.10;99.90
23721;DHT22;42950;52.134;5.578;2022-12-10T04:06:45;-0.10;99.90
23721;DHT22;42950;52.134;5.578;2022-12-10T04:09:13;-0.20;99.90
23721;DHT22;42950;52.134;5.578;2022-12-10T04:11:41;-0.20;99.90
23721;DHT22;42950;52.134;5.578;2022-12-10T04:14:08;-0.20;99.90
23721;DHT22;42950;52.134;5.578;2022-12-10T04:16:53;-0.20;99.90
23721;DHT22;42950;52.134;5.578;2022-12-10T04:19:19;-0.20;99.90
23721;DHT22;42950;52.134;5.578;2022-12-10T04:21:46;-0.20;99.90
23721;DHT22;42950;52.134;5.578;2022-12-10T04:24:33;-0.10;99.90
23721;DHT22;42950;52.134;5.578;2022-12-10T04:27:32;-0.20;99.90
23721;DHT22;42950;52.134;5.578;2022-12-10T04:29:58;-0.10;99.90
23721;DHT22;42950;52.134;5.578;2022-12-10T04:32:26;-0.20;99.90
23721;DHT22;42950;52.134;5.578;2022-12-10T04:34:52;-0.20;99.90
23721;DHT22;42950;52.134;5.578;2022-12-10T04:37:18;-0.30;99.90
23721;DHT22;42950;52.134;5.578;2022-12-10T04:39:44;-0.30;99.90
23721;DHT22;42950;52.134;5.578;2022-12-10T04:42:10;-0.30;99.90
23721;DHT22;42950;52.134;5.578;2022-12-10T04:44:36;-0.30;99.90
23721;DHT22;42950;52.134;5.578;2022-12-10T04:47:04;-0.20;99.90
23721;DHT22;42950;52.134;5.578;2022-12-10T04:49:30;-0.20;99.90
23721;DHT22;42950;52.134;5.578;2022-12-10T04:51:56;-0.40;99.90
23721;DHT22;42950;52.134;5.578;2022-12-10T04:54:22;-0.30;99.90
23721;DHT22;42950;52.134;5.578;2022-12-10T04:56:48;-0.30;99.90
23721;DHT22;42950;52.134;5.578;2022-12-10T04:59:14;-0.40;99.90
23721;DHT22;42950;52.134;5.578;2022-12-10T05:01:39;-0.40;99.90
23721;DHT22;42950;52.134;5.578;2022-12-10T05:04:09;-0.30;99.90
23721;DHT22;42950;52.134;5.578;2022-12-10T05:06:35;-0.20;99.90
23721;DHT22;42950;52.134;5.578;2022-12-10T05:09:01;-0.20;99.90
23721;DHT22;42950;52.134;5.578;2022-12-10T05:11:29;-0.10;99.90
23721;DHT22;42950;52.134;5.578;2022-12-10T05:13:56;-0.20;99.90
23721;DHT22;42950;52.134;5.578;2022-12-10T05:16:24;-0.20;99.90
23721;DHT22;42950;52.134;5.578;2022-12-10T05:18:51;-0.20;99.90
23721;DHT22;42950;52.134;5.578;2022-12-10T05:21:19;-0.20;99.90
23721;DHT22;42950;52.134;5.578;2022-12-10T05:23:48;-0.20;99.90
23721;DHT22;42950;52.134;5.578;2022-12-10T05:26:19;-0.30;99.90
23721;DHT22;42950;52.134;5.578;2022-12-10T05:28:51;-0.30;99.90
23721;DHT22;42950;52.134;5.578;2022-12-10T05:33:44;-0.40;99.90
23721;DHT22;42950;52.134;5.578;2022-12-10T05:36:13;-0.40;99.90
23721;DHT22;42950;52.134;5.578;2022-12-10T05:38:40;-0.50;99.90
23721;DHT22;42950;52.134;5.578;2022-12-10T05:41:23;-0.50;99.90
23721;DHT22;42950;52.134;5.578;2022-12-10T05:43:50;-0.50;99.90
23721;DHT22;42950;52.134;5.578;2022-12-10T05:46:20;-0.50;99.90
23721;DHT22;42950;52.134;5.578;2022-12-10T05:48:46;-0.60;99.90
23721;DHT22;42950;52.134;5.578;2022-12-10T05:51:14;-0.50;99.90
23721;DHT22;42950;52.134;5.578;2022-12-10T05:53:41;-0.30;99.90
23721;DHT22;42950;52.134;5.578;2022-12-10T05:56:09;-0.30;99.90
23721;DHT22;42950;52.134;5.578;2022-12-10T05:58:36;-0.40;99.90
23721;DHT22;42950;52.134;5.578;2022-12-10T06:01:07;-0.50;99.90
23721;DHT22;42950;52.134;5.578;2022-12-10T06:03:32;-0.40;99.90
23721;DHT22;42950;52.134;5.578;2022-12-10T06:05:58;-0.40;99.90
23721;DHT22;42950;52.134;5.578;2022-12-10T06:08:24;-0.40;99.90
23721;DHT22;42950;52.134;5.578;2022-12-10T06:10:50;-0.40;99.90
23721;DHT22;42950;52.134;5.578;2022-12-10T06:13:16;-0.40;99.90
23721;DHT22;42950;52.134;5.578;2022-12-10T06:15:42;-0.40;99.90
23721;DHT22;42950;52.134;5.578;2022-12-10T06:18:08;-0.40;99.90
23721;DHT22;42950;52.134;5.578;2022-12-10T06:20:36;-0.40;99.90
23721;DHT22;42950;52.134;5.578;2022-12-10T06:23:02;-0.40;99.90
23721;DHT22;42950;52.134;5.578;2022-12-10T06:25:28;-0.40;99.90
23721;DHT22;42950;52.134;5.578;2022-12-10T06:27:54;-0.40;99.90
23721;DHT22;42950;52.134;5.578;2022-12-10T06:30:20;-0.40;99.90
23721;DHT22;42950;52.134;5.578;2022-12-10T06:32:45;-0.40;99.90
23721;DHT22;42950;52.134;5.578;2022-12-10T06:35:11;-0.40;99.90
23721;DHT22;42950;52.134;5.578;2022-12-10T06:37:37;-0.40;99.90
23721;DHT22;42950;52.134;5.578;2022-12-10T06:40:04;-0.30;99.90
23721;DHT22;42950;52.134;5.578;2022-12-10T06:42:30;-0.30;99.90
23721;DHT22;42950;52.134;5.578;2022-12-10T06:44:56;-0.30;99.90
23721;DHT22;42950;52.134;5.578;2022-12-10T06:47:21;-0.40;99.90
23721;DHT22;42950;52.134;5.578;2022-12-10T06:49:47;-0.40;99.90
23721;DHT22;42950;52.134;5.578;2022-12-10T06:52:13;-0.30;99.90
23721;DHT22;42950;52.134;5.578;2022-12-10T06:54:39;-0.40;99.90
23721;DHT22;42950;52.134;5.578;2022-12-10T06:57:05;-0.30;99.90
23721;DHT22;42950;52.134;5.578;2022-12-10T06:59:31;-0.30;99.90
23721;DHT22;42950;52.134;5.578;2022-12-10T07:01:56;-0.20;99.90
23721;DHT22;42950;52.134;5.578;2022-12-10T07:04:22;-0.20;99.90
23721;DHT22;42950;52.134;5.578;2022-12-10T07:06:48;-0.20;99.90
23721;DHT22;42950;52.134;5.578;2022-12-10T07:09:14;-0.20;99.90
23721;DHT22;42950;52.134;5.578;2022-12-10T07:11:40;-0.20;99.90
23721;DHT22;42950;52.134;5.578;2022-12-10T07:14:07;-0.20;99.90
23721;DHT22;42950;52.134;5.578;2022-12-10T07:16:33;-0.20;99.90
23721;DHT22;42950;52.134;5.578;2022-12-10T07:19:00;-0.20;99.90
23721;DHT22;42950;52.134;5.578;2022-12-10T07:21:29;-0.20;99.90
23721;DHT22;42950;52.134;5.578;2022-12-10T07:23:57;-0.20;99.90
23721;DHT22;42950;52.134;5.578;2022-12-10T07:26:31;-0.20;99.90
23721;DHT22;42950;52.134;5.578;2022-12-10T07:29:02;-0.20;99.90
23721;DHT22;42950;52.134;5.578;2022-12-10T07:31:28;-0.20;99.90
23721;DHT22;42950;52.134;5.578;2022-12-10T07:33:54;-0.20;99.90
23721;DHT22;42950;52.134;5.578;2022-12-10T07:36:24;-0.20;99.90
23721;DHT22;42950;52.134;5.578;2022-12-10T07:38:51;-0.20;99.90
23721;DHT22;42950;52.134;5.578;2022-12-10T07:41:16;-0.10;99.90
23721;DHT22;42950;52.134;5.578;2022-12-10T07:43:43;-0.10;99.90
23721;DHT22;42950;52.134;5.578;2022-12-10T07:46:27;-0.10;99.90
23721;DHT22;42950;52.134;5.578;2022-12-10T07:48:53;-0.10;99.90
23721;DHT22;42950;52.134;5.578;2022-12-10T07:51:21;-0.10;99.90
23721;DHT22;42950;52.134;5.578;2022-12-10T07:53:47;-0.10;99.90
23721;DHT22;42950;52.134;5.578;2022-12-10T07:56:13;0.00;99.90
23721;DHT22;42950;52.134;5.578;2022-12-10T07:58:44;0.00;99.90
23721;DHT22;42950;52.134;5.578;2022-12-10T08:01:12;0.00;99.90
23721;DHT22;42950;52.134;5.578;2022-12-10T08:03:38;-0.10;99.90
23721;DHT22;42950;52.134;5.578;2022-12-10T08:06:06;-0.10;99.90
23721;DHT22;42950;52.134;5.578;2022-12-10T08:08:36;-0.10;99.90
23721;DHT22;42950;52.134;5.578;2022-12-10T08:11:03;0.00;99.90
23721;DHT22;42950;52.134;5.578;2022-12-10T08:13:29;-0.10;99.90
23721;DHT22;42950;52.134;5.578;2022-12-10T08:16:07;0.00;99.90
23721;DHT22;42950;52.134;5.578;2022-12-10T08:18:34;0.10;99.90
23721;DHT22;42950;52.134;5.578;2022-12-10T08:21:04;0.00;99.90
23721;DHT22;42950;52.134;5.578;2022-12-10T08:23:30;0.00;99.90
23721;DHT22;42950;52.134;5.578;2022-12-10T08:25:56;0.00;99.90
23721;DHT22;42950;52.134;5.578;2022-12-10T08:28:21;0.10;99.90
23721;DHT22;42950;52.134;5.578;2022-12-10T08:30:48;0.10;99.90
23721;DHT22;42950;52.134;5.578;2022-12-10T08:33:13;0.10;99.90
23721;DHT22;42950;52.134;5.578;2022-12-10T08:35:39;0.00;99.90
23721;DHT22;42950;52.134;5.578;2022-12-10T08:38:05;0.00;99.90
23721;DHT22;42950;52.134;5.578;2022-12-10T08:40:30;0.00;99.90
23721;DHT22;42950;52.134;5.578;2022-12-10T08:42:56;0.00;99.90
23721;DHT22;42950;52.134;5.578;2022-12-10T08:45:21;0.00;99.90
23721;DHT22;42950;52.134;5.578;2022-12-10T08:47:47;0.00;99.90
23721;DHT22;42950;52.134;5.578;2022-12-10T08:50:12;-0.10;99.90
23721;DHT22;42950;52.134;5.578;2022-12-10T08:52:38;-0.10;99.90
23721;DHT22;42950;52.134;5.578;2022-12-10T08:55:03;-0.20;99.90
23721;DHT22;42950;52.134;5.578;2022-12-10T08:57:29;-0.10;99.90
23721;DHT22;42950;52.134;5.578;2022-12-10T08:59:55;-0.10;99.90
23721;DHT22;42950;52.134;5.578;2022-12-10T09:02:20;-0.10;99.90
23721;DHT22;42950;52.134;5.578;2022-12-10T09:04:46;-0.10;99.90
23721;DHT22;42950;52.134;5.578;2022-12-10T09:07:12;-0.10;99.90
23721;DHT22;42950;52.134;5.578;2022-12-10T09:09:37;-0.10;99.90
23721;DHT22;42950;52.134;5.578;2022-12-10T09:12:03;-0.10;99.90
23721;DHT22;42950;52.134;5.578;2022-12-10T09:14:29;0.00;99.90
23721;DHT22;42950;52.134;5.578;2022-12-10T09:16:54;0.00;99.90
23721;DHT22;42950;52.134;5.578;2022-12-10T09:19:20;0.00;99.90
23721;DHT22;42950;52.134;5.578;2022-12-10T09:21:45;0.00;99.90
23721;DHT22;42950;52.134;5.578;2022-12-10T09:24:12;0.00;99.90
23721;DHT22;42950;52.134;5.578;2022-12-10T09:26:38;-0.10;99.90
23721;DHT22;42950;52.134;5.578;2022-12-10T09:29:03;-0.10;99.90
23721;DHT22;42950;52.134;5.578;2022-12-10T09:31:29;-0.20;99.90
23721;DHT22;42950;52.134;5.578;2022-12-10T09:33:54;-0.20;99.90
23721;DHT22;42950;52.134;5.578;2022-12-10T09:36:21;-0.10;99.90
23721;DHT22;42950;52.134;5.578;2022-12-10T09:38:47;-0.10;99.90
23721;DHT22;42950;52.134;5.578;2022-12-10T09:46:54;-0.10;99.90
23721;DHT22;42950;52.134;5.578;2022-12-10T09:52:08;0.00;99.90
23721;DHT22;42950;52.134;5.578;2022-12-10T09:54:41;-0.10;99.90
23721;DHT22;42950;52.134;5.578;2022-12-10T09:57:19;-0.10;99.90
23721;DHT22;42950;52.134;5.578;2022-12-10T09:59:49;0.00;99.90
23721;DHT22;42950;52.134;5.578;2022-12-10T10:04:52;-0.10;99.90
23721;DHT22;42950;52.134;5.578;2022-12-10T10:07:26;-0.10;99.90
23721;DHT22;42950;52.134;5.578;2022-12-10T10:09:57;-0.10;99.90
23721;DHT22;42950;52.134;5.578;2022-12-10T10:12:23;-0.10;99.90
23721;DHT22;42950;52.134;5.578;2022-12-10T10:14:49;0.00;99.90
23721;DHT22;42950;52.134;5.578;2022-12-10T10:17:21;0.10;99.90
23721;DHT22;42950;52.134;5.578;2022-12-10T10:19:48;0.10;99.90
23721;DHT22;42950;52.134;5.578;2022-12-10T10:22:14;0.00;99.90
23721;DHT22;42950;52.134;5.578;2022-12-10T10:24:43;0.10;99.90
23721;DHT22;42950;52.134;5.578;2022-12-10T10:29:39;0.10;99.90
23721;DHT22;42950;52.134;5.578;2022-12-10T10:32:16;-0.10;99.90
23721;DHT22;42950;52.134;5.578;2022-12-10T10:34:43;-0.10;99.90
23721;DHT22;42950;52.134;5.578;2022-12-10T10:37:18;-0.10;99.90
23721;DHT22;42950;52.134;5.578;2022-12-10T10:39:47;-0.10;99.90
23721;DHT22;42950;52.134;5.578;2022-12-10T10:44:56;0.00;99.90
23721;DHT22;42950;52.134;5.578;2022-12-10T10:47:31;0.00;99.90
23721;DHT22;42950;52.134;5.578;2022-12-10T10:49:57;0.10;99.90
23721;DHT22;42950;52.134;5.578;2022-12-10T10:52:28;0.10;99.90
23721;DHT22;42950;52.134;5.578;2022-12-10T10:54:54;0.10;99.90
23721;DHT22;42950;52.134;5.578;2022-12-10T10:57:33;0.10;99.90
23721;DHT22;42950;52.134;5.578;2022-12-10T11:00:07;0.00;99.90
23721;DHT22;42950;52.134;5.578;2022-12-10T11:02:36;0.10;99.90
23721;DHT22;42950;52.134;5.578;2022-12-10T11:05:26;0.20;99.90
23721;DHT22;42950;52.134;5.578;2022-12-10T11:08:12;0.20;99.90
23721;DHT22;42950;52.134;5.578;2022-12-10T11:10:51;0.30;99.90
23721;DHT22;42950;52.134;5.578;2022-12-10T11:13:25;0.40;99.90
23721;DHT22;42950;52.134;5.578;2022-12-10T11:18:38;0.40;99.90
23721;DHT22;42950;52.134;5.578;2022-12-10T11:23:41;0.40;99.90
23721;DHT22;42950;52.134;5.578;2022-12-10T11:32:26;0.40;99.90
23721;DHT22;42950;52.134;5.578;2022-12-10T11:36:08;0.40;99.90
23721;DHT22;42950;52.134;5.578;2022-12-10T11:38:27;0.40;99.90
23721;DHT22;42950;52.134;5.578;2022-12-10T11:46:57;0.50;99.90
23721;DHT22;42950;52.134;5.578;2022-12-10T11:57:41;0.20;99.90
23721;DHT22;42950;52.134;5.578;2022-12-10T12:00:23;0.20;99.90
23721;DHT22;42950;52.134;5.578;2022-12-10T12:03:22;0.20;99.90
23721;DHT22;42950;52.134;5.578;2022-12-10T12:06:04;0.30;99.90
23721;DHT22;42950;52.134;5.578;2022-12-10T12:17:09;0.50;99.90
23721;DHT22;42950;52.134;5.578;2022-12-10T12:19:39;0.50;99.90
23721;DHT22;42950;52.134;5.578;2022-12-10T12:22:23;0.50;99.90
23721;DHT22;42950;52.134;5.578;2022-12-10T12:24:55;0.50;99.90
23721;DHT22;42950;52.134;5.578;2022-12-10T12:27:37;0.60;99.90
23721;DHT22;42950;52.134;5.578;2022-12-10T12:30:12;0.50;99.90
23721;DHT22;42950;52.134;5.578;2022-12-10T12:33:00;0.50;99.90
23721;DHT22;42950;52.134;5.578;2022-12-10T12:35:54;0.60;99.90
23721;DHT22;42950;52.134;5.578;2022-12-10T12:38:39;0.60;99.90
23721;DHT22;42950;52.134;5.578;2022-12-10T12:43:49;0.60;99.90
23721;DHT22;42950;52.134;5.578;2022-12-10T12:46:26;0.70;99.90
23721;DHT22;42950;52.134;5.578;2022-12-10T12:49:01;0.60;99.90
23721;DHT22;42950;52.134;5.578;2022-12-10T12:51:42;0.40;99.90
23721;DHT22;42950;52.134;5.578;2022-12-10T12:54:11;0.40;99.90
23721;DHT22;42950;52.134;5.578;2022-12-10T13:02:08;0.50;99.90
23721;DHT22;42950;52.134;5.578;2022-12-10T13:04:39;0.60;99.90
23721;DHT22;42950;52.134;5.578;2022-12-10T13:09:51;0.60;99.90
23721;DHT22;42950;52.134;5.578;2022-12-10T13:12:28;0.50;99.90
23721;DHT22;42950;52.134;5.578;2022-12-10T13:15:11;0.50;99.90
23721;DHT22;42950;52.134;5.578;2022-12-10T13:18:20;0.60;99.90
23721;DHT22;42950;52.134;5.578;2022-12-10T13:23:53;0.50;99.90
23721;DHT22;42950;52.134;5.578;2022-12-10T13:26:28;0.50;99.90
23721;DHT22;42950;52.134;5.578;2022-12-10T13:28:56;0.40;99.90
23721;DHT22;42950;52.134;5.578;2022-12-10T13:31:36;0.40;99.90
23721;DHT22;42950;52.134;5.578;2022-12-10T13:36:36;0.40;99.90
23721;DHT22;42950;52.134;5.578;2022-12-10T13:41:31;0.50;99.90
23721;DHT22;42950;52.134;5.578;2022-12-10T13:44:32;0.50;99.90
23721;DHT22;42950;52.134;5.578;2022-12-10T13:50:00;0.50;99.90
23721;DHT22;42950;52.134;5.578;2022-12-10T13:52:35;0.30;99.90
23721;DHT22;42950;52.134;5.578;2022-12-10T13:55:23;0.30;99.90
23721;DHT22;42950;52.134;5.578;2022-12-10T14:08:32;0.20;99.90
23721;DHT22;42950;52.134;5.578;2022-12-10T14:10:59;0.30;99.90
23721;DHT22;42950;52.134;5.578;2022-12-10T14:13:58;0.30;99.90
23721;DHT22;42950;52.134;5.578;2022-12-10T14:16:29;0.30;99.90
23721;DHT22;42950;52.134;5.578;2022-12-10T14:19:05;0.40;99.90
23721;DHT22;42950;52.134;5.578;2022-12-10T14:21:36;0.50;99.90
23721;DHT22;42950;52.134;5.578;2022-12-10T14:24:04;0.40;99.90
23721;DHT22;42950;52.134;5.578;2022-12-10T14:26:33;0.40;99.90
23721;DHT22;42950;52.134;5.578;2022-12-10T14:31:34;0.30;99.90
23721;DHT22;42950;52.134;5.578;2022-12-10T14:34:04;0.30;99.90
23721;DHT22;42950;52.134;5.578;2022-12-10T14:36:39;0.30;99.90
23721;DHT22;42950;52.134;5.578;2022-12-10T14:39:21;0.40;99.90
23721;DHT22;42950;52.134;5.578;2022-12-10T14:41:52;0.30;99.90
23721;DHT22;42950;52.134;5.578;2022-12-10T14:44:19;0.30;99.90
23721;DHT22;42950;52.134;5.578;2022-12-10T14:46:47;0.30;99.90
23721;DHT22;42950;52.134;5.578;2022-12-10T14:49:26;0.20;99.90
23721;DHT22;42950;52.134;5.578;2022-12-10T14:51:51;0.30;99.90
23721;DHT22;42950;52.134;5.578;2022-12-10T14:54:33;0.20;99.90
23721;DHT22;42950;52.134;5.578;2022-12-10T14:57:13;0.30;99.90
23721;DHT22;42950;52.134;5.578;2022-12-10T14:59:47;0.20;99.90
23721;DHT22;42950;52.134;5.578;2022-12-10T15:02:22;0.30;99.90
23721;DHT22;42950;52.134;5.578;2022-12-10T15:04:50;0.20;99.90
23721;DHT22;42950;52.134;5.578;2022-12-10T15:07:20;0.20;99.90
23721;DHT22;42950;52.134;5.578;2022-12-10T15:09:47;0.30;99.90
23721;DHT22;42950;52.134;5.578;2022-12-10T15:12:27;0.40;99.90
23721;DHT22;42950;52.134;5.578;2022-12-10T15:14:55;0.40;99.90
23721;DHT22;42950;52.134;5.578;2022-12-10T15:17:40;0.30;99.90
23721;DHT22;42950;52.134;5.578;2022-12-10T15:20:46;0.40;99.90
23721;DHT22;42950;52.134;5.578;2022-12-10T15:28:33;0.40;99.90
23721;DHT22;42950;52.134;5.578;2022-12-10T15:31:22;0.30;99.90
23721;DHT22;42950;52.134;5.578;2022-12-10T15:34:01;0.30;99.90
23721;DHT22;42950;52.134;5.578;2022-12-10T15:36:40;0.30;99.90
23721;DHT22;42950;52.134;5.578;2022-12-10T15:41:45;0.30;99.90
23721;DHT22;42950;52.134;5.578;2022-12-10T15:47:14;0.40;99.90
23721;DHT22;42950;52.134;5.578;2022-12-10T15:49:41;0.50;99.90
23721;DHT22;42950;52.134;5.578;2022-12-10T15:52:17;0.60;99.90
23721;DHT22;42950;52.134;5.578;2022-12-10T15:54:45;0.60;99.90
23721;DHT22;42950;52.134;5.578;2022-12-10T15:57:16;0.60;99.90
23721;DHT22;42950;52.134;5.578;2022-12-10T15:59:47;0.60;99.90
23721;DHT22;42950;52.134;5.578;2022-12-10T16:02:37;0.60;99.90
23721;DHT22;42950;52.134;5.578;2022-12-10T16:05:14;0.60;99.90
23721;DHT22;42950;52.134;5.578;2022-12-10T16:07:40;0.60;99.90
23721;DHT22;42950;52.134;5.578;2022-12-10T16:10:07;0.70;99.90
23721;DHT22;42950;52.134;5.578;2022-12-10T16:12:35;0.70;99.90
23721;DHT22;42950;52.134;5.578;2022-12-10T16:15:01;0.80;99.90
23721;DHT22;42950;52.134;5.578;2022-12-10T16:17:28;0.70;99.90
23721;DHT22;42950;52.134;5.578;2022-12-10T16:20:25;0.70;99.90
23721;DHT22;42950;52.134;5.578;2022-12-10T16:22:55;0.70;99.90
23721;DHT22;42950;52.134;5.578;2022-12-10T16:25:22;0.70;99.90
23721;DHT22;42950;52.134;5.578;2022-12-10T16:27:47;0.70;99.90
23721;DHT22;42950;52.134;5.578;2022-12-10T16:30:36;0.70;99.90
23721;DHT22;42950;52.134;5.578;2022-12-10T16:33:03;0.70;99.90
23721;DHT22;42950;52.134;5.578;2022-12-10T16:35:29;0.80;99.90
23721;DHT22;42950;52.134;5.578;2022-12-10T16:37:55;0.70;99.90
23721;DHT22;42950;52.134;5.578;2022-12-10T16:40:25;0.70;99.90
23721;DHT22;42950;52.134;5.578;2022-12-10T16:42:53;0.70;99.90
23721;DHT22;42950;52.134;5.578;2022-12-10T16:45:26;0.80;99.90
23721;DHT22;42950;52.134;5.578;2022-12-10T16:47:52;0.90;99.90
23721;DHT22;42950;52.134;5.578;2022-12-10T16:50:18;0.90;99.90
23721;DHT22;42950;52.134;5.578;2022-12-10T16:52:44;0.90;99.90
23721;DHT22;42950;52.134;5.578;2022-12-10T16:55:18;1.00;99.90
23721;DHT22;42950;52.134;5.578;2022-12-10T16:57:45;1.00;99.90
23721;DHT22;42950;52.134;5.578;2022-12-10T17:00:16;1.00;99.90
23721;DHT22;42950;52.134;5.578;2022-12-10T17:02:43;1.00;99.90
23721;DHT22;42950;52.134;5.578;2022-12-10T17:07:42;1.10;99.90
23721;DHT22;42950;52.134;5.578;2022-12-10T17:10:12;1.10;99.90
23721;DHT22;42950;52.134;5.578;2022-12-10T17:12:38;1.10;99.90
23721;DHT22;42950;52.134;5.578;2022-12-10T17:15:04;1.10;99.90
23721;DHT22;42950;52.134;5.578;2022-12-10T17:17:31;1.10;99.90
23721;DHT22;42950;52.134;5.578;2022-12-10T17:19:56;1.10;99.90
23721;DHT22;42950;52.134;5.578;2022-12-10T17:22:22;1.00;99.90
23721;DHT22;42950;52.134;5.578;2022-12-10T17:24:48;0.90;99.90
23721;DHT22;42950;52.134;5.578;2022-12-10T17:27:17;0.90;99.90
23721;DHT22;42950;52.134;5.578;2022-12-10T17:29:45;0.90;99.90
23721;DHT22;42950;52.134;5.578;2022-12-10T17:32:19;0.90;99.90
23721;DHT22;42950;52.134;5.578;2022-12-10T17:34:44;0.90;99.90
23721;DHT22;42950;52.134;5.578;2022-12-10T17:37:18;0.90;99.90
23721;DHT22;42950;52.134;5.578;2022-12-10T17:39:48;0.90;99.90
23721;DHT22;42950;52.134;5.578;2022-12-10T17:42:14;0.90;99.90
23721;DHT22;42950;52.134;5.578;2022-12-10T17:44:39;0.90;99.90
23721;DHT22;42950;52.134;5.578;2022-12-10T17:47:34;0.80;99.90
23721;DHT22;42950;52.134;5.578;2022-12-10T17:50:01;0.80;99.90
23721;DHT22;42950;52.134;5.578;2022-12-10T17:52:26;0.80;99.90
23721;DHT22;42950;52.134;5.578;2022-12-10T17:54:52;0.90;99.90
23721;DHT22;42950;52.134;5.578;2022-12-10T17:57:20;0.80;99.90